AEE154 LGAV-LGKV
Flight info
| Callsign | AEE154 |
|---|---|
| Flight time | N/A |
| Altitude | 23000 |
| Route | KRO T162 KOROS/N0420F220 DCT ASKOS |
| Aircraft | A320/M-SDE3FGHIRWY/LB1 |
Departure
| Time | 2026-05-04 18:45 |
|---|---|
| Airport | Athens Eleftherios Venizelos International Airport (LGAV) |
Arrival
| Time | N/A |
|---|---|
| Airport | Kavala Alexander the Great International Airport (LGKV) |
| Time | Latitude | Longitude | Altitude | Speed | Heading |
|---|---|---|---|---|---|
| 2026-05-04 18:01 | 37.93696 | 23.94920 | 302 ft | 0 kts | 307° |
| 2026-05-04 18:36 | 37.93696 | 23.94921 | 301 ft | 1 kts | 307° |
| 2026-05-04 18:36 | 37.93681 | 23.94944 | 302 ft | 4 kts | 307° |
| 2026-05-04 18:36 | 37.93668 | 23.94965 | 301 ft | 4 kts | 303° |
| 2026-05-04 18:37 | 37.93659 | 23.94995 | 301 ft | 4 kts | 261° |
| 2026-05-04 18:37 | 37.93669 | 23.95025 | 300 ft | 4 kts | 223° |
| 2026-05-04 18:37 | 37.93674 | 23.95031 | 304 ft | 0 kts | 217° |
| 2026-05-04 18:39 | 37.93672 | 23.95029 | 300 ft | 0 kts | 217° |
| 2026-05-04 18:40 | 37.93669 | 23.95026 | 301 ft | 3 kts | 217° |
| 2026-05-04 18:40 | 37.93624 | 23.94984 | 300 ft | 12 kts | 217° |
| 2026-05-04 18:40 | 37.93542 | 23.94905 | 301 ft | 17 kts | 217° |
| 2026-05-04 18:40 | 37.93441 | 23.94878 | 300 ft | 18 kts | 133° |
| 2026-05-04 18:41 | 37.93356 | 23.94985 | 299 ft | 18 kts | 180° |
| 2026-05-04 18:41 | 37.93237 | 23.94890 | 302 ft | 23 kts | 217° |
| 2026-05-04 18:41 | 37.93097 | 23.94757 | 302 ft | 27 kts | 217° |
| 2026-05-04 18:41 | 37.92946 | 23.94613 | 302 ft | 28 kts | 216° |
| 2026-05-04 18:42 | 37.92789 | 23.94465 | 304 ft | 29 kts | 217° |
| 2026-05-04 18:42 | 37.92629 | 23.94315 | 303 ft | 21 kts | 217° |
| 2026-05-04 18:42 | 37.92537 | 23.94323 | 307 ft | 10 kts | 127° |
| 2026-05-04 18:42 | 37.92532 | 23.94333 | 305 ft | 0 kts | 127° |
| 2026-05-04 18:43 | 37.92525 | 23.94344 | 306 ft | 4 kts | 127° |
| 2026-05-04 18:43 | 37.92492 | 23.94401 | 308 ft | 10 kts | 125° |
| 2026-05-04 18:43 | 37.92511 | 23.94477 | 308 ft | 13 kts | 37° |
| 2026-05-04 18:44 | 37.92722 | 23.94676 | 303 ft | 71 kts | 37° |
| 2026-05-04 18:44 | 37.93069 | 23.95006 | 296 ft | 112 kts | 37° |
| 2026-05-04 18:44 | 37.94121 | 23.96005 | 318 ft | 166 kts | 37° |
| 2026-05-04 18:44 | 37.95050 | 23.96892 | 837 ft | 168 kts | 37° |
| 2026-05-04 18:45 | 37.95994 | 23.97808 | 1472 ft | 170 kts | 36° |
| 2026-05-04 18:45 | 37.96977 | 23.98757 | 1779 ft | 188 kts | 36° |
| 2026-05-04 18:45 | 37.98082 | 23.99816 | 2049 ft | 211 kts | 36° |
| 2026-05-04 18:45 | 37.99325 | 24.00997 | 2356 ft | 236 kts | 35° |
| 2026-05-04 18:46 | 38.00683 | 24.02273 | 3032 ft | 243 kts | 34° |
| 2026-05-04 18:46 | 38.02041 | 24.03543 | 3948 ft | 247 kts | 34° |
| 2026-05-04 18:46 | 38.03444 | 24.04852 | 4750 ft | 252 kts | 34° |
| 2026-05-04 18:46 | 38.04857 | 24.06169 | 5655 ft | 253 kts | 34° |
| 2026-05-04 18:47 | 38.06281 | 24.07496 | 6541 ft | 255 kts | 34° |
| 2026-05-04 18:47 | 38.07719 | 24.08839 | 7340 ft | 258 kts | 34° |
| 2026-05-04 18:47 | 38.09176 | 24.10203 | 8125 ft | 262 kts | 34° |
| 2026-05-04 18:47 | 38.10655 | 24.11588 | 8896 ft | 266 kts | 33° |
| 2026-05-04 18:48 | 38.12157 | 24.12994 | 9658 ft | 270 kts | 33° |
| 2026-05-04 18:48 | 38.13683 | 24.14423 | 10366 ft | 275 kts | 33° |
| 2026-05-04 18:48 | 38.15283 | 24.15920 | 10620 ft | 297 kts | 33° |
| 2026-05-04 18:48 | 38.17011 | 24.17534 | 10761 ft | 320 kts | 33° |
| 2026-05-04 18:49 | 38.18866 | 24.19270 | 10889 ft | 341 kts | 34° |
| 2026-05-04 18:49 | 38.20814 | 24.21098 | 11230 ft | 353 kts | 34° |
| 2026-05-04 18:49 | 38.22803 | 24.22971 | 11811 ft | 357 kts | 34° |
| 2026-05-04 18:49 | 38.24809 | 24.24863 | 12452 ft | 360 kts | 34° |
| 2026-05-04 18:50 | 38.26830 | 24.26769 | 13095 ft | 363 kts | 34° |
| 2026-05-04 18:50 | 38.28869 | 24.28694 | 13745 ft | 366 kts | 35° |
| 2026-05-04 18:50 | 38.30921 | 24.30629 | 14326 ft | 369 kts | 35° |
| 2026-05-04 18:50 | 38.32998 | 24.32588 | 14868 ft | 372 kts | 35° |
| 2026-05-04 18:51 | 38.35090 | 24.34564 | 15399 ft | 376 kts | 35° |
| 2026-05-04 18:51 | 38.37263 | 24.36438 | 15918 ft | 378 kts | 26° |
| 2026-05-04 18:51 | 38.39752 | 24.37506 | 16446 ft | 380 kts | 8° |
| 2026-05-04 18:51 | 38.42403 | 24.37619 | 17003 ft | 383 kts | 358° |
| 2026-05-04 18:52 | 38.45083 | 24.37508 | 17575 ft | 386 kts | 358° |
| 2026-05-04 18:52 | 38.47777 | 24.37377 | 18137 ft | 389 kts | 358° |
| 2026-05-04 18:52 | 38.50497 | 24.37242 | 18655 ft | 393 kts | 358° |
| 2026-05-04 18:52 | 38.53240 | 24.37106 | 19122 ft | 396 kts | 358° |
| 2026-05-04 18:53 | 38.56000 | 24.36973 | 19588 ft | 399 kts | 358° |
| 2026-05-04 18:53 | 38.58791 | 24.36841 | 20054 ft | 402 kts | 358° |
| 2026-05-04 18:53 | 38.61602 | 24.36709 | 20493 ft | 405 kts | 358° |
| 2026-05-04 18:53 | 38.64429 | 24.36574 | 20920 ft | 408 kts | 358° |
| 2026-05-04 18:54 | 38.67280 | 24.36436 | 21320 ft | 411 kts | 358° |
| 2026-05-04 18:54 | 38.70147 | 24.36301 | 21713 ft | 414 kts | 358° |
| 2026-05-04 18:54 | 38.73040 | 24.36171 | 22098 ft | 417 kts | 359° |
| 2026-05-04 18:54 | 38.75948 | 24.36042 | 22468 ft | 420 kts | 358° |
| 2026-05-04 18:55 | 38.78874 | 24.35909 | 22829 ft | 422 kts | 358° |
| 2026-05-04 18:55 | 38.84798 | 24.35635 | 23121 ft | 433 kts | 358° |
| 2026-05-04 18:55 | 38.87845 | 24.35494 | 23121 ft | 442 kts | 358° |
| 2026-05-04 18:56 | 38.90935 | 24.35349 | 23115 ft | 446 kts | 358° |
| 2026-05-04 18:56 | 38.94045 | 24.35198 | 23118 ft | 447 kts | 358° |
| 2026-05-04 18:56 | 38.97155 | 24.35045 | 23117 ft | 449 kts | 358° |
| 2026-05-04 18:56 | 39.00300 | 24.34891 | 23117 ft | 453 kts | 358° |
| 2026-05-04 18:57 | 39.03448 | 24.34740 | 23111 ft | 453 kts | 358° |
| 2026-05-04 18:57 | 39.06600 | 24.34592 | 23112 ft | 453 kts | 358° |
| 2026-05-04 18:57 | 39.09751 | 24.34447 | 23107 ft | 454 kts | 358° |
| 2026-05-04 18:57 | 39.12915 | 24.34300 | 23108 ft | 454 kts | 358° |
| 2026-05-04 18:58 | 39.16070 | 24.34153 | 23109 ft | 454 kts | 358° |
| 2026-05-04 18:58 | 39.19228 | 24.34003 | 23110 ft | 454 kts | 358° |
| 2026-05-04 18:58 | 39.22382 | 24.33853 | 23106 ft | 454 kts | 358° |
| 2026-05-04 18:58 | 39.25536 | 24.33705 | 23108 ft | 454 kts | 358° |
| 2026-05-04 18:59 | 39.28695 | 24.33559 | 23101 ft | 453 kts | 358° |
| 2026-05-04 18:59 | 39.31851 | 24.33414 | 23101 ft | 453 kts | 359° |
| 2026-05-04 18:59 | 39.35004 | 24.33268 | 23098 ft | 453 kts | 358° |
| 2026-05-04 18:59 | 39.38156 | 24.33118 | 23094 ft | 453 kts | 358° |
| 2026-05-04 19:00 | 39.41309 | 24.32966 | 23087 ft | 453 kts | 359° |
| 2026-05-04 19:00 | 39.44456 | 24.32812 | 23090 ft | 453 kts | 359° |
| 2026-05-04 19:00 | 39.47611 | 24.32656 | 23086 ft | 453 kts | 359° |
| 2026-05-04 19:00 | 39.50762 | 24.32501 | 23087 ft | 453 kts | 359° |
| 2026-05-04 19:01 | 39.53913 | 24.32349 | 23087 ft | 453 kts | 359° |
| 2026-05-04 19:01 | 39.57062 | 24.32200 | 23076 ft | 453 kts | 359° |
| 2026-05-04 19:01 | 39.60214 | 24.32053 | 23080 ft | 453 kts | 359° |
| 2026-05-04 19:01 | 39.63366 | 24.31906 | 23079 ft | 453 kts | 359° |
| 2026-05-04 19:02 | 39.66522 | 24.31759 | 23080 ft | 453 kts | 359° |
| 2026-05-04 19:02 | 39.69674 | 24.31610 | 23080 ft | 453 kts | 359° |
| 2026-05-04 19:02 | 39.72821 | 24.31462 | 23081 ft | 453 kts | 359° |
| 2026-05-04 19:02 | 39.75974 | 24.31314 | 23081 ft | 453 kts | 359° |
| 2026-05-04 19:03 | 39.79175 | 24.31159 | 23075 ft | 454 kts | 359° |
| 2026-05-04 19:03 | 39.82326 | 24.31004 | 23075 ft | 454 kts | 359° |
| 2026-05-04 19:03 | 39.85482 | 24.30848 | 23070 ft | 454 kts | 359° |
| 2026-05-04 19:03 | 39.88642 | 24.30692 | 23069 ft | 454 kts | 359° |
| 2026-05-04 19:04 | 39.91798 | 24.30538 | 23071 ft | 454 kts | 359° |
| 2026-05-04 19:04 | 39.94960 | 24.30384 | 23074 ft | 454 kts | 359° |
| 2026-05-04 19:04 | 39.98121 | 24.30234 | 23072 ft | 455 kts | 359° |
| 2026-05-04 19:04 | 40.01286 | 24.30084 | 23069 ft | 455 kts | 359° |
| 2026-05-04 19:05 | 40.04449 | 24.29932 | 23065 ft | 455 kts | 359° |
| 2026-05-04 19:05 | 40.07617 | 24.29779 | 23063 ft | 455 kts | 359° |
| 2026-05-04 19:05 | 40.10788 | 24.29627 | 23063 ft | 455 kts | 359° |
| 2026-05-04 19:05 | 40.13950 | 24.29471 | 23058 ft | 455 kts | 359° |
| 2026-05-04 19:06 | 40.17113 | 24.29313 | 23056 ft | 455 kts | 359° |
| 2026-05-04 19:06 | 40.20280 | 24.29157 | 23060 ft | 456 kts | 359° |
| 2026-05-04 19:06 | 40.23447 | 24.29004 | 23061 ft | 456 kts | 359° |
| 2026-05-04 19:06 | 40.26618 | 24.28851 | 23058 ft | 455 kts | 359° |
| 2026-05-04 19:07 | 40.28713 | 24.28750 | 23057 ft | 455 kts | 359° |
| 2026-05-04 19:07 | 40.31878 | 24.28598 | 22963 ft | 456 kts | 359° |
| 2026-05-04 19:07 | 40.35034 | 24.28444 | 22502 ft | 451 kts | 359° |
| 2026-05-04 19:07 | 40.38165 | 24.28291 | 22236 ft | 449 kts | 359° |
| 2026-05-04 19:08 | 40.41249 | 24.28141 | 21963 ft | 438 kts | 359° |
| 2026-05-04 19:08 | 40.44281 | 24.27993 | 21256 ft | 434 kts | 359° |
| 2026-05-04 19:08 | 40.47293 | 24.27847 | 20347 ft | 431 kts | 359° |
| 2026-05-04 19:08 | 40.50278 | 24.27701 | 19470 ft | 428 kts | 358° |
| 2026-05-04 19:09 | 40.53247 | 24.27555 | 18608 ft | 425 kts | 358° |
| 2026-05-04 19:09 | 40.56186 | 24.27407 | 17673 ft | 416 kts | 358° |
| 2026-05-04 19:09 | 40.59020 | 24.27364 | 16739 ft | 397 kts | 4° |
| 2026-05-04 19:09 | 40.61701 | 24.27910 | 15831 ft | 384 kts | 14° |
| 2026-05-04 19:10 | 40.64191 | 24.29039 | 14946 ft | 374 kts | 24° |
| 2026-05-04 19:10 | 40.65705 | 24.30073 | 14373 ft | 367 kts | 30° |
| 2026-05-04 19:10 | 40.68387 | 24.32740 | 13137 ft | 355 kts | 42° |
| 2026-05-04 19:10 | 40.70150 | 24.34955 | 12209 ft | 346 kts | 42° |
| 2026-05-04 19:11 | 40.71840 | 24.37089 | 11766 ft | 326 kts | 43° |
| 2026-05-04 19:11 | 40.73212 | 24.39371 | 11411 ft | 315 kts | 57° |
| 2026-05-04 19:11 | 40.74060 | 24.42021 | 11067 ft | 315 kts | 72° |
| 2026-05-04 19:11 | 40.74334 | 24.44885 | 10725 ft | 315 kts | 88° |
| 2026-05-04 19:12 | 40.73997 | 24.47737 | 10386 ft | 317 kts | 103° |
| 2026-05-04 19:12 | 40.72650 | 24.53136 | 9685 ft | 300 kts | 83° |
| 2026-05-04 19:12 | 40.72915 | 24.55831 | 9322 ft | 295 kts | 78° |
| 2026-05-04 19:13 | 40.73166 | 24.58503 | 8988 ft | 292 kts | 80° |
| 2026-05-04 19:13 | 40.73358 | 24.61155 | 8676 ft | 289 kts | 81° |
| 2026-05-04 19:13 | 40.73515 | 24.63790 | 8372 ft | 287 kts | 82° |
| 2026-05-04 19:13 | 40.73655 | 24.66410 | 8061 ft | 286 kts | 82° |
| 2026-05-04 19:14 | 40.73789 | 24.69023 | 7757 ft | 285 kts | 82° |
| 2026-05-04 19:14 | 40.73923 | 24.71621 | 7455 ft | 283 kts | 82° |
| 2026-05-04 19:14 | 40.74131 | 24.74180 | 7153 ft | 278 kts | 73° |
| 2026-05-04 19:14 | 40.74833 | 24.76504 | 6859 ft | 271 kts | 55° |
| 2026-05-04 19:15 | 40.75967 | 24.78454 | 6569 ft | 265 kts | 46° |
| 2026-05-04 19:15 | 40.77217 | 24.80217 | 6245 ft | 259 kts | 43° |